createdAt,value
2022-10-01T00:01:25.090Z,100176.81
2022-10-01T00:03:53.357Z,100172.03
2022-10-01T00:06:22.505Z,100170.03
2022-10-01T00:08:50.971Z,100168.81
2022-10-01T00:13:55.843Z,100171.13
2022-10-01T00:16:25.781Z,100174.28
2022-10-01T00:18:54.275Z,100171.50
2022-10-01T00:21:25.250Z,100177.88
2022-10-01T00:23:58.360Z,100173.81
2022-10-01T00:26:29.278Z,100171.81
2022-10-01T00:29:01.554Z,100167.03
2022-10-01T00:31:30.267Z,100172.59
2022-10-01T00:33:59.594Z,100178.19
2022-10-01T00:36:28.039Z,100178.56
2022-10-01T00:39:00.992Z,100184.13
2022-10-01T00:41:31.513Z,100179.34
2022-10-01T00:44:01.715Z,100175.31
2022-10-01T00:46:39.339Z,100175.31
2022-10-01T00:49:14.695Z,100187.25
2022-10-01T00:51:47.179Z,100186.03
2022-10-01T00:54:19.829Z,100184.81
2022-10-01T00:56:47.894Z,100183.25
2022-10-01T00:59:16.669Z,100184.81
2022-10-01T01:01:44.765Z,100173.66
2022-10-01T01:04:19.551Z,100179.25
2022-10-01T01:06:56.060Z,100171.66
2022-10-01T01:09:30.780Z,100169.66
2022-10-01T01:12:37.686Z,100170.44
2022-10-01T01:18:03.454Z,100165.59
2022-10-01T01:20:51.961Z,100171.97
2022-10-01T01:29:18.552Z,100161.94
2022-10-01T01:31:47.414Z,100162.38
2022-10-01T01:34:22.044Z,100167.53
2022-10-01T01:36:58.897Z,100156.69
2022-10-01T01:39:30.087Z,100161.06
2022-10-01T01:42:03.039Z,100152.69
2022-10-01T01:44:35.887Z,100152.69
2022-10-01T01:47:07.686Z,100158.28
2022-10-01T01:49:36.126Z,100149.47
2022-10-01T01:52:09.836Z,100160.63
2022-10-01T01:54:37.146Z,100161.41
2022-10-01T01:57:05.434Z,100160.63
2022-10-01T01:59:34.161Z,100163.44
2022-10-01T02:02:01.758Z,100160.63
2022-10-01T02:04:55.198Z,100167.00
2022-10-01T02:10:23.210Z,100137.50
2022-10-01T02:26:38.613Z,100128.19
2022-10-01T02:29:15.581Z,100124.63
2022-10-01T02:31:42.950Z,100117.47
2022-10-01T02:34:12.845Z,100105.50
2022-10-01T02:36:42.404Z,100109.09
2022-10-01T02:39:11.092Z,100108.28
2022-10-01T02:41:38.382Z,100101.97
2022-10-01T02:44:11.974Z,100091.66
2022-10-01T02:47:04.753Z,100099.69
2022-10-01T02:49:32.358Z,100090.97
2022-10-01T02:52:25.011Z,100096.97
2022-10-01T02:55:15.316Z,100083.13
2022-10-01T02:57:43.154Z,100093.50
2022-10-01T03:00:15.569Z,100095.50
2022-10-01T03:02:43.022Z,100093.97
2022-10-01T03:05:10.471Z,100092.81
2022-10-01T03:07:38.355Z,100096.41
2022-10-01T03:10:07.719Z,100097.63
2022-10-01T03:12:36.114Z,100089.25
2022-10-01T03:15:04.240Z,100078.09
2022-10-01T03:17:31.544Z,100087.25
2022-10-01T03:19:58.876Z,100086.81
2022-10-01T03:22:26.301Z,100082.44
2022-10-01T03:24:54.352Z,100089.25
2022-10-01T03:27:22.730Z,100088.91
2022-10-01T03:29:50.665Z,100087.78
2022-10-01T03:32:18.882Z,100086.22
2022-10-01T03:34:46.654Z,100084.19
2022-10-01T03:37:13.929Z,100096.16
2022-10-01T03:39:41.228Z,100098.16
2022-10-01T03:42:08.872Z,100100.94
2022-10-01T03:44:36.166Z,100097.81
2022-10-01T03:47:03.432Z,100104.63
2022-10-01T03:49:30.785Z,100099.81
2022-10-01T03:51:58.156Z,100103.84
2022-10-01T03:54:25.771Z,100101.16
2022-10-01T03:56:53.029Z,100101.56
2022-10-01T03:59:20.586Z,100101.94
2022-10-01T04:01:48.273Z,100097.13
2022-10-01T04:04:15.683Z,100101.16
2022-10-01T04:06:43.054Z,100107.94
2022-10-01T04:09:10.381Z,100105.16
2022-10-01T04:11:38.112Z,100113.09
2022-10-01T04:14:06.010Z,100113.88
2022-10-01T04:16:36.599Z,100111.41
2022-10-01T04:19:05.157Z,100116.56
2022-10-01T04:21:32.898Z,100117.78
2022-10-01T04:24:01.365Z,100118.56
2022-10-01T04:26:28.843Z,100124.16
2022-10-01T04:28:56.510Z,100126.53
2022-10-01T04:31:25.148Z,100116.16
2022-10-01T04:33:54.176Z,100122.06
2022-10-01T04:36:21.978Z,100122.41
2022-10-01T04:38:56.627Z,100119.16
2022-10-01T04:41:27.030Z,100119.16
2022-10-01T04:43:54.315Z,100124.31
2022-10-01T04:46:21.718Z,100123.44
2022-10-01T04:48:54.638Z,100119.41
2022-10-01T04:51:22.451Z,100108.59
2022-10-01T04:53:51.910Z,100101.34
2022-10-01T04:56:24.640Z,100106.06
2022-10-01T04:58:54.955Z,100113.13
2022-10-01T05:01:22.446Z,100107.44
2022-10-01T05:03:49.934Z,100111.69
2022-10-01T05:06:17.377Z,100113.59
2022-10-01T05:08:45.343Z,100113.06
2022-10-01T05:11:12.926Z,100111.41
2022-10-01T05:13:40.414Z,100114.09
2022-10-01T05:16:08.336Z,100116.41
2022-10-01T05:18:35.931Z,100120.69
2022-10-01T05:21:07.304Z,100120.13
2022-10-01T05:23:34.732Z,100119.16
2022-10-01T05:26:04.529Z,100110.66
2022-10-01T05:28:33.029Z,100105.75
2022-10-01T05:31:02.987Z,100095.59
2022-10-01T05:33:31.443Z,100103.09
2022-10-01T05:35:59.174Z,100095.41
2022-10-01T05:38:26.726Z,100090.84
2022-10-01T05:40:54.137Z,100083.91
2022-10-01T05:43:21.639Z,100087.72
2022-10-01T05:45:50.017Z,100073.06
2022-10-01T05:48:17.555Z,100068.50
2022-10-01T05:50:45.311Z,100066.25
2022-10-01T05:53:14.248Z,100059.63
2022-10-01T05:55:41.815Z,100065.13
2022-10-01T05:58:11.556Z,100065.00
2022-10-01T06:00:41.075Z,100065.31
2022-10-01T06:03:09.323Z,100066.44
2022-10-01T06:05:37.150Z,100061.97
2022-10-01T06:08:07.804Z,100070.34
2022-10-01T06:10:37.153Z,100066.00
2022-10-01T06:13:05.919Z,100059.72
2022-10-01T06:15:37.971Z,100056.94
2022-10-01T06:18:07.571Z,100056.47
2022-10-01T06:20:35.681Z,100055.25
2022-10-01T06:23:06.053Z,100058.50
2022-10-01T06:25:36.711Z,100054.47
2022-10-01T06:28:06.230Z,100059.28
2022-10-01T06:30:36.948Z,100067.69
2022-10-01T06:33:07.473Z,100063.78
2022-10-01T06:35:39.836Z,100057.72
2022-10-01T06:38:08.381Z,100056.03
2022-10-01T06:40:35.957Z,100055.91
2022-10-01T06:43:04.068Z,100055.78
2022-10-01T06:45:31.876Z,100051.78
2022-10-01T06:48:03.383Z,100057.38
2022-10-01T06:50:32.446Z,100042.59
2022-10-01T06:53:00.944Z,100044.94
2022-10-01T06:55:31.747Z,100047.41
2022-10-01T06:58:01.741Z,100034.31
2022-10-01T07:00:31.495Z,100037.13
2022-10-01T07:02:59.915Z,100036.78
2022-10-01T07:05:28.331Z,100029.66
2022-10-01T07:07:55.797Z,100024.81
2022-10-01T07:10:23.560Z,100032.09
2022-10-01T07:12:51.165Z,100027.28
2022-10-01T07:15:21.500Z,100028.97
2022-10-01T07:17:51.184Z,100031.44
2022-10-01T07:20:20.950Z,100025.41
2022-10-01T07:22:49.273Z,100017.78
2022-10-01T07:25:17.530Z,100021.25
2022-10-01T07:27:45.162Z,100012.72
2022-10-01T07:30:12.843Z,100006.44
2022-10-01T07:32:43.423Z,100000.47
2022-10-01T07:35:11.627Z,100006.03
2022-10-01T07:37:39.036Z,100004.88
2022-10-01T07:40:12.044Z,100005.03
2022-10-01T07:42:39.516Z,100008.03
2022-10-01T07:45:07.667Z,100002.78
2022-10-01T07:47:35.379Z,100011.50
2022-10-01T07:50:03.461Z,100003.09
2022-10-01T07:52:31.527Z,100001.56
2022-10-01T07:54:58.962Z,100000.28
2022-10-01T07:57:26.441Z,99997.50
2022-10-01T07:59:56.018Z,99989.44
2022-10-01T08:02:24.735Z,99980.47
2022-10-01T08:05:12.000Z,99970.22
2022-10-01T08:07:39.403Z,99970.63
2022-10-01T08:10:07.220Z,99966.31
2022-10-01T08:12:34.844Z,99967.28
2022-10-01T08:15:03.303Z,99957.50
2022-10-01T08:17:30.971Z,99950.50
2022-10-01T08:19:58.423Z,99952.84
2022-10-01T08:22:25.875Z,99936.81
2022-10-01T08:24:53.521Z,99940.28
2022-10-01T08:27:20.968Z,99933.41
2022-10-01T08:29:48.555Z,99933.28
2022-10-01T08:32:17.176Z,99935.59
2022-10-01T08:34:45.400Z,99937.00
2022-10-01T08:37:13.277Z,99932.81
2022-10-01T08:39:40.764Z,99928.63
2022-10-01T08:42:41.878Z,99937.22
2022-10-01T08:45:18.050Z,99928.84
2022-10-01T08:47:56.327Z,99934.91
2022-10-01T08:50:39.233Z,99928.56
2022-10-01T08:53:15.717Z,99920.47
2022-10-01T08:55:44.597Z,99920.78
2022-10-01T08:58:20.140Z,99916.72
2022-10-01T09:00:50.132Z,99916.72
2022-10-01T09:03:19.289Z,99918.59
2022-10-01T09:08:47.597Z,99915.47
2022-10-01T09:11:25.200Z,99916.25
2022-10-01T09:14:19.686Z,99917.50
2022-10-01T09:17:04.682Z,99910.81
2022-10-01T09:19:59.248Z,99906.91
2022-10-01T09:25:29.270Z,99896.34
2022-10-01T09:28:03.143Z,99894.16
2022-10-01T09:30:32.228Z,99897.09
2022-10-01T09:33:12.164Z,99892.78
2022-10-01T09:40:59.061Z,99885.28
2022-10-01T09:43:31.389Z,99888.25
2022-10-01T09:45:59.409Z,99877.19
2022-10-01T09:48:38.091Z,99871.25
2022-10-01T09:56:38.008Z,99861.31
2022-10-01T09:59:12.029Z,99866.59
2022-10-01T10:04:23.901Z,99858.59
2022-10-01T10:06:53.691Z,99855.78
2022-10-01T10:09:28.565Z,99859.53
2022-10-01T10:11:58.360Z,99859.22
2022-10-01T10:14:59.676Z,99846.94
2022-10-01T10:17:28.138Z,99852.53
2022-10-01T10:19:55.842Z,99850.19
2022-10-01T10:22:27.464Z,99847.88
2022-10-01T10:24:59.282Z,99847.88
2022-10-01T10:27:30.499Z,99840.38
2022-10-01T10:30:14.718Z,99837.28
2022-10-01T10:32:45.966Z,99833.97
2022-10-01T10:35:20.851Z,99835.09
2022-10-01T10:37:51.910Z,99829.31
2022-10-01T10:40:29.081Z,99813.72
2022-10-01T10:42:59.129Z,99806.25
2022-10-01T10:45:33.999Z,99800.81
2022-10-01T10:48:04.883Z,99811.72
2022-10-01T10:50:37.014Z,99805.47
2022-10-01T10:53:22.732Z,99809.53
2022-10-01T10:56:08.001Z,99804.69
2022-10-01T10:58:42.658Z,99793.03
2022-10-01T11:01:16.550Z,99788.97
2022-10-01T11:03:53.553Z,99798.47
2022-10-01T11:06:21.104Z,99785.56
2022-10-01T11:08:57.901Z,99786.16
2022-10-01T11:14:45.207Z,99777.44
2022-10-01T11:28:40.647Z,99744.13
2022-10-01T11:31:14.615Z,99736.66
2022-10-01T11:34:10.650Z,99731.81
2022-10-01T11:39:19.218Z,99727.56
2022-10-01T11:47:21.118Z,99710.53
2022-10-01T11:55:39.127Z,99715.34
2022-10-01T12:01:01.675Z,99716.66
2022-10-01T12:03:43.751Z,99714.16
2022-10-01T12:06:15.287Z,99712.81
2022-10-01T12:08:53.471Z,99714.06
2022-10-01T12:11:30.227Z,99714.16
2022-10-01T12:14:03.990Z,99711.72
2022-10-01T12:16:45.101Z,99705.69
2022-10-01T12:21:56.972Z,99687.47
2022-10-01T12:24:31.162Z,99680.69
2022-10-01T12:27:28.065Z,99684.09
2022-10-01T12:30:05.281Z,99687.69
2022-10-01T12:35:57.483Z,99679.81
2022-10-01T12:38:44.475Z,99676.63
2022-10-01T12:49:49.654Z,99677.56
2022-10-01T13:00:50.915Z,99670.88
2022-10-01T13:12:12.421Z,99663.50
2022-10-01T13:14:44.814Z,99647.69
2022-10-01T13:20:20.148Z,99647.88
2022-10-01T13:23:18.958Z,99640.09
2022-10-01T13:32:00.690Z,99646.31
2022-10-01T13:37:32.217Z,99648.63
2022-10-01T13:40:00.635Z,99645.72
2022-10-01T13:45:08.159Z,99627.84
2022-10-01T13:47:41.261Z,99624.75
2022-10-01T13:50:22.425Z,99624.13
2022-10-01T13:52:51.068Z,99625.09
2022-10-01T13:55:29.352Z,99630.88
2022-10-01T13:58:07.616Z,99625.13
2022-10-01T14:00:35.188Z,99632.66
2022-10-01T14:03:42.456Z,99628.63
2022-10-01T14:06:18.918Z,99628.41
2022-10-01T14:11:49.014Z,99626.75
2022-10-01T14:17:13.479Z,99618.69
2022-10-01T14:19:47.519Z,99626.16
2022-10-01T14:22:41.614Z,99608.72
2022-10-01T14:25:36.603Z,99598.94
2022-10-01T14:30:56.134Z,99596.31
2022-10-01T14:36:44.508Z,99567.63
2022-10-01T14:41:55.847Z,99584.03
2022-10-01T14:47:11.755Z,99573.16
2022-10-01T14:49:39.270Z,99582.47
2022-10-01T14:52:19.143Z,99576.75
2022-10-01T14:54:51.912Z,99583.28
2022-10-01T15:00:11.661Z,99564.16
2022-10-01T15:05:39.928Z,99569.44
2022-10-01T15:08:39.879Z,99564.78
2022-10-01T15:11:12.642Z,99548.13
2022-10-01T15:13:43.558Z,99546.09
2022-10-01T15:16:16.886Z,99537.94
2022-10-01T15:18:49.616Z,99551.94
2022-10-01T15:21:23.410Z,99538.91
2022-10-01T15:23:51.557Z,99533.00
2022-10-01T15:26:29.795Z,99526.19
2022-10-01T15:29:12.717Z,99527.75
2022-10-01T15:31:49.943Z,99517.94
2022-10-01T15:34:21.526Z,99515.81
2022-10-01T15:36:51.038Z,99515.66
2022-10-01T15:42:03.353Z,99509.44
2022-10-01T15:44:50.865Z,99510.84
2022-10-01T15:58:32.168Z,99501.50
2022-10-01T16:01:05.442Z,99496.34
2022-10-01T16:06:35.441Z,99477.69
2022-10-01T16:12:04.323Z,99477.25
2022-10-01T16:14:59.910Z,99472.28
2022-10-01T16:17:30.149Z,99480.34
2022-10-01T16:20:01.673Z,99478.78
2022-10-01T16:22:35.632Z,99476.47
2022-10-01T16:30:27.271Z,99464.66
2022-10-01T16:32:55.919Z,99458.28
2022-10-01T16:35:25.821Z,99465.13
2022-10-01T16:37:56.304Z,99454.38
2022-10-01T16:40:26.558Z,99453.59
2022-10-01T16:42:54.843Z,99443.69
2022-10-01T16:45:25.043Z,99440.88
2022-10-01T16:47:53.821Z,99438.53
2022-10-01T16:50:22.264Z,99426.56
2022-10-01T16:52:54.692Z,99424.56
2022-10-01T16:55:30.020Z,99409.31
2022-10-01T16:57:57.353Z,99404.50
2022-10-01T17:00:26.889Z,99407.75
2022-10-01T17:02:56.524Z,99396.56
2022-10-01T17:05:27.892Z,99388.97
2022-10-01T17:08:01.164Z,99395.34
2022-10-01T17:10:32.259Z,99383.81
2022-10-01T17:12:59.933Z,99377.16
2022-10-01T17:15:28.320Z,99387.56
2022-10-01T17:17:57.454Z,99378.56
2022-10-01T17:20:28.757Z,99377.47
2022-10-01T17:22:58.057Z,99375.16
2022-10-01T17:25:32.325Z,99370.00
2022-10-01T17:28:01.400Z,99365.19
2022-10-01T17:30:30.228Z,99362.41
2022-10-01T17:33:00.243Z,99353.22
2022-10-01T17:35:30.031Z,99352.00
2022-10-01T17:37:58.590Z,99355.56
2022-10-01T17:40:30.167Z,99352.78
2022-10-01T17:42:59.620Z,99347.19
2022-10-01T17:45:27.012Z,99344.84
2022-10-01T17:47:54.907Z,99342.03
2022-10-01T17:50:22.692Z,99342.81
2022-10-01T17:52:50.684Z,99334.44
2022-10-01T17:55:20.113Z,99327.28
2022-10-01T17:57:47.545Z,99330.06
2022-10-01T18:00:17.351Z,99321.69
2022-10-01T18:02:45.798Z,99320.59
2022-10-01T18:05:17.151Z,99314.25
2022-10-01T18:07:45.895Z,99312.22
2022-10-01T18:10:13.796Z,99317.03
2022-10-01T18:12:41.563Z,99305.84
2022-10-01T18:15:09.992Z,99292.94
2022-10-01T18:20:26.244Z,99290.28
2022-10-01T18:22:53.746Z,99287.03
2022-10-01T18:25:21.200Z,99280.66
2022-10-01T18:27:50.428Z,99280.66
2022-10-01T18:30:18.689Z,99263.84
2022-10-01T18:32:51.514Z,99266.16
2022-10-01T18:35:22.263Z,99260.88
2022-10-01T18:37:55.032Z,99252.31
2022-10-01T18:40:29.964Z,99251.38
2022-10-01T18:43:07.810Z,99252.47
2022-10-01T18:46:03.836Z,99249.97
2022-10-01T18:52:15.946Z,99239.66
2022-10-01T18:57:42.370Z,99233.28
2022-10-01T19:00:16.748Z,99226.16
2022-10-01T19:08:52.069Z,99229.44
2022-10-01T19:14:39.912Z,99220.56
2022-10-01T19:17:34.100Z,99219.31
2022-10-01T19:20:29.549Z,99214.03
2022-10-01T19:26:28.800Z,99201.09
2022-10-01T19:37:30.249Z,99177.28
2022-10-01T19:40:05.665Z,99181.34
2022-10-01T19:42:38.637Z,99171.69
2022-10-01T19:45:21.705Z,99168.88
2022-10-01T19:50:34.048Z,99175.56
2022-10-01T19:53:03.741Z,99172.78
2022-10-01T19:55:39.513Z,99169.47
2022-10-01T19:58:18.060Z,99168.22
2022-10-01T20:00:51.211Z,99155.00
2022-10-01T20:03:39.655Z,99157.81
2022-10-01T20:08:55.957Z,99143.03
2022-10-01T20:16:45.522Z,99141.66
2022-10-01T20:19:42.600Z,99135.28
2022-10-01T20:22:45.749Z,99123.31
2022-10-01T20:25:24.741Z,99123.31
2022-10-01T20:30:39.631Z,99119.88
2022-10-01T20:36:13.710Z,99117.06
2022-10-01T20:39:05.706Z,99113.50
2022-10-01T20:41:44.344Z,99119.41
2022-10-01T20:44:17.649Z,99116.13
2022-10-01T20:54:44.889Z,99093.44
2022-10-01T20:59:54.828Z,99086.28
2022-10-01T21:08:02.360Z,99084.25
2022-10-01T21:10:42.771Z,99085.03
2022-10-01T21:16:15.205Z,99087.38
2022-10-01T21:24:39.268Z,99087.84
2022-10-01T21:38:28.375Z,99087.84
2022-10-01T21:46:40.381Z,99089.28
2022-10-01T21:49:45.747Z,99091.00
2022-10-01T21:55:20.020Z,99092.72
2022-10-01T21:58:17.070Z,99094.94
2022-10-01T22:01:11.452Z,99089.22
2022-10-01T22:03:48.560Z,99092.19
2022-10-01T22:06:27.282Z,99097.47
2022-10-01T22:09:06.384Z,99109.94
2022-10-01T22:11:38.801Z,99104.81
2022-10-01T22:14:16.798Z,99103.25
2022-10-01T22:19:49.115Z,99113.84
2022-10-01T22:22:30.451Z,99115.59
2022-10-01T22:25:00.257Z,99108.91
2022-10-01T22:30:13.880Z,99102.72
2022-10-01T22:38:16.838Z,99114.53
2022-10-01T22:40:49.867Z,99110.69
2022-10-01T22:43:17.333Z,99108.81
2022-10-01T22:46:20.374Z,99111.34
2022-10-01T22:52:02.870Z,99119.41
2022-10-01T22:55:03.023Z,99104.38
2022-10-01T23:00:15.908Z,99111.38
2022-10-01T23:08:27.186Z,99104.88
2022-10-01T23:11:34.090Z,99109.22
2022-10-01T23:25:18.192Z,99110.81
2022-10-01T23:30:24.139Z,99109.44
2022-10-01T23:41:19.616Z,99110.84
2022-10-01T23:43:49.534Z,99114.88
2022-10-01T23:46:22.871Z,99115.34
2022-10-01T23:49:02.357Z,99112.72
2022-10-01T23:51:40.148Z,99110.88
2022-10-01T23:54:38.808Z,99111.81
2022-10-01T23:57:18.468Z,99115.53
